Time;durP1;ratioP1;P1;durP2;ratioP2;P2;SDS_P1;SDS_P2;PMS_P1;PMS_P2;Temp;Humidity;BMP_temperature;BMP_pressure;BME280_temperature;BME280_humidity;BME280_pressure;Samples;Min_cycle;Max_cycle;Signal;HPM_P1;HPM_P2
2022/11/20 00:01:11;;;;;;;;;;;;;;;19.63;47.13;100852.34;5095294;28;19924;-40
2022/11/20 00:03:36;;;;;;;;;;;;;;;19.63;47.14;100849.59;5111876;28;19967;-39
2022/11/20 00:06:02;;;;;;;;;;;;;;;19.63;47.25;100849.59;5098823;28;19966;-36
2022/11/20 00:08:28;;;;;;;;;;;;;;;19.62;47.30;100850.72;5088849;28;19924;-37
2022/11/20 00:10:53;;;;;;;;;;;;;;;19.63;47.17;100848.75;5121350;28;19931;-37
2022/11/20 00:13:19;;;;;;;;;;;;;;;19.62;47.15;100845.19;5114170;28;19942;-39
2022/11/20 00:15:44;;;;;;;;;;;;;;;19.63;47.09;100848.75;5115299;28;20380;-38
2022/11/20 00:18:10;;;;;;;;;;;;;;;19.62;47.41;100853.47;5119139;28;19961;-40
2022/11/20 00:20:36;;;;;;;;;;;;;;;19.62;47.29;100842.41;5121388;28;20294;-39
2022/11/20 00:23:01;;;;;;;;;;;;;;;19.63;47.40;100855.13;5115826;28;19924;-39
2022/11/20 00:25:27;;;;;;;;;;;;;;;19.62;47.18;100849.88;5122348;28;20287;-40
2022/11/20 00:27:52;;;;;;;;;;;;;;;19.62;47.34;100847.94;5110666;28;19981;-40
2022/11/20 00:30:18;;;;;;;;;;;;;;;19.62;47.26;100850.72;5121519;28;19931;-39
2022/11/20 00:32:43;;;;;;;;;;;;;;;19.63;47.11;100851.53;5109585;28;19938;-39
2022/11/20 00:35:09;;;;;;;;;;;;;;;19.63;47.30;100857.06;5112526;28;19924;-40
2022/11/20 00:37:35;;;;;;;;;;;;;;;19.62;47.05;100845.19;5114951;28;20439;-40
2022/11/20 00:40:00;;;;;;;;;;;;;;;19.62;47.29;100842.41;5121843;28;19923;-39
2022/11/20 00:42:26;;;;;;;;;;;;;;;19.63;47.34;100848.75;5112606;28;19923;-39
2022/11/20 00:44:51;;;;;;;;;;;;;;;19.63;47.09;100846.00;5117240;28;20284;-40
2022/11/20 00:47:17;;;;;;;;;;;;;;;19.62;47.33;100836.91;5115039;28;19931;-39
2022/11/20 00:49:42;;;;;;;;;;;;;;;19.61;47.13;100829.72;5120401;28;20023;-40
2022/11/20 00:52:08;;;;;;;;;;;;;;;19.61;46.93;100832.50;5113677;28;19972;-38
2022/11/20 00:54:34;;;;;;;;;;;;;;;19.61;47.18;100839.94;5097005;28;19927;-39
2022/11/20 00:56:59;;;;;;;;;;;;;;;19.61;47.18;100829.72;5124032;28;20383;-39
2022/11/20 00:59:25;;;;;;;;;;;;;;;19.62;46.84;100830.53;5123454;28;19923;-38
2022/11/20 01:01:50;;;;;;;;;;;;;;;19.61;47.14;100832.50;5112188;28;19931;-39
2022/11/20 01:04:16;;;;;;;;;;;;;;;19.62;47.20;100828.59;5118124;28;20279;-40
2022/11/20 01:06:41;;;;;;;;;;;;;;;19.62;47.20;100828.59;5121675;28;19928;-39
2022/11/20 01:09:09;;;;;;;;;;;;;;;19.62;47.31;100828.59;5117614;28;19943;-39
2022/11/20 01:11:36;;;;;;;;;;;;;;;19.62;47.19;100831.38;5105655;28;19966;-39
2022/11/20 01:14:02;;;;;;;;;;;;;;;19.61;47.22;100820.63;5113365;27;19935;-39
2022/11/20 01:16:28;;;;;;;;;;;;;;;19.62;47.25;100825.03;5119778;28;20003;-39
2022/11/20 01:18:55;;;;;;;;;;;;;;;19.62;47.11;100823.09;5126959;28;19939;-37
2022/11/20 01:21:22;;;;;;;;;;;;;;;19.62;47.14;100819.50;5106274;28;20007;-39
2022/11/20 01:23:48;;;;;;;;;;;;;;;19.62;47.27;100822.25;5098421;28;19974;-40
2022/11/20 01:26:14;;;;;;;;;;;;;;;19.62;47.29;100833.31;5122843;28;19927;-39
2022/11/20 01:28:40;;;;;;;;;;;;;;;19.61;46.97;100826.97;5123415;28;19966;-39
2022/11/20 01:31:22;;;;;;;;;;;;;;;19.61;47.06;100826.97;5115448;28;19923;-39
2022/11/20 01:33:48;;;;;;;;;;;;;;;19.61;47.19;100828.91;5099654;28;20138;-40
2022/11/20 01:36:14;;;;;;;;;;;;;;;19.61;47.22;100828.91;5097305;28;19974;-38
2022/11/20 01:38:40;;;;;;;;;;;;;;;19.60;46.89;100828.00;5116805;28;19981;-38
2022/11/20 01:41:05;;;;;;;;;;;;;;;19.61;47.23;100820.63;5098820;28;19923;-37
2022/11/20 01:43:31;;;;;;;;;;;;;;;19.61;47.21;100817.84;5117350;28;20203;-40
2022/11/20 01:46:15;;;;;;;;;;;;;;;19.60;47.29;100822.50;5112851;28;19936;-39
2022/11/20 01:48:46;;;;;;;;;;;;;;;19.61;46.91;100818.69;5100417;28;20021;-38
2022/11/20 01:51:13;;;;;;;;;;;;;;;19.60;47.27;100822.50;5121766;28;19967;-40
2022/11/20 01:53:38;;;;;;;;;;;;;;;19.60;47.08;100805.91;5115978;28;20183;-38
2022/11/20 01:56:05;;;;;;;;;;;;;;;19.60;47.28;100800.41;5116139;28;20307;-40
2022/11/20 01:58:32;;;;;;;;;;;;;;;19.61;47.26;100798.50;5119173;28;19986;-38
2022/11/20 02:00:58;;;;;;;;;;;;;;;19.60;47.19;100780.22;5115881;28;19963;-38
2022/11/20 02:03:23;;;;;;;;;;;;;;;19.60;47.22;100789.34;5115204;28;19970;-38
2022/11/20 02:05:51;;;;;;;;;;;;;;;19.60;47.19;100792.09;5113452;28;20438;-38
2022/11/20 02:08:17;;;;;;;;;;;;;;;19.60;47.22;100794.03;5100879;28;19966;-37
2022/11/20 02:10:42;;;;;;;;;;;;;;;19.60;46.93;100789.34;5104811;28;19923;-38
2022/11/20 02:15:54;;;;;;;;;;;;;;;19.60;47.01;100783.00;5094514;28;19967;-39
2022/11/20 02:18:19;;;;;;;;;;;;;;;19.60;47.25;100783.81;5124040;28;20320;-39
2022/11/20 02:20:45;;;;;;;;;;;;;;;19.60;47.18;100777.47;5119823;28;19928;-39
2022/11/20 02:23:12;;;;;;;;;;;;;;;19.60;47.06;100781.06;5117013;28;19924;-38
2022/11/20 02:25:37;;;;;;;;;;;;;;;19.60;47.15;100783.81;5117192;28;20501;-40
2022/11/20 02:28:03;;;;;;;;;;;;;;;19.60;47.21;100791.28;5120377;28;19927;-39
2022/11/20 02:30:28;;;;;;;;;;;;;;;19.60;47.15;100789.34;5117674;28;20147;-39
2022/11/20 02:32:54;;;;;;;;;;;;;;;19.59;47.24;100787.69;5118203;27;20093;-36
2022/11/20 02:35:22;;;;;;;;;;;;;;;19.60;46.89;100778.28;5120130;28;20401;-40
2022/11/20 02:37:48;;;;;;;;;;;;;;;19.59;47.21;100779.41;5113200;28;19971;-39
2022/11/20 02:40:14;;;;;;;;;;;;;;;19.59;47.10;100775.81;5119509;28;19969;-38
2022/11/20 02:42:39;;;;;;;;;;;;;;;19.60;47.09;100778.28;5115625;28;19938;-38
2022/11/20 02:45:05;;;;;;;;;;;;;;;19.60;47.13;100777.47;5092646;28;19924;-39
2022/11/20 02:47:31;;;;;;;;;;;;;;;19.60;46.81;100780.22;5096949;28;19928;-38
2022/11/20 02:49:57;;;;;;;;;;;;;;;19.61;46.83;100781.94;5095553;28;19955;-38
2022/11/20 02:52:22;;;;;;;;;;;;;;;19.60;47.14;100771.94;5109996;28;19946;-39
2022/11/20 02:54:48;;;;;;;;;;;;;;;19.60;47.06;100783.81;5101765;28;19950;-39
2022/11/20 02:57:13;;;;;;;;;;;;;;;19.59;46.98;100781.34;5110037;28;19932;-39
2022/11/20 02:59:39;;;;;;;;;;;;;;;19.60;47.14;100783.00;5113248;28;19934;-39
2022/11/20 03:02:05;;;;;;;;;;;;;;;19.59;47.06;100790.47;5113099;28;19924;-39
2022/11/20 03:04:30;;;;;;;;;;;;;;;19.59;46.97;100787.69;5115529;27;19928;-39
2022/11/20 03:06:56;;;;;;;;;;;;;;;19.59;46.88;100784.94;5108513;28;20279;-38
2022/11/20 03:09:21;;;;;;;;;;;;;;;19.59;47.06;100781.34;5106681;28;19935;-39
2022/11/20 03:11:47;;;;;;;;;;;;;;;19.58;47.16;100777.78;5118896;28;19927;-39
2022/11/20 03:14:14;;;;;;;;;;;;;;;19.59;47.12;100778.59;5115216;28;19931;-39
2022/11/20 03:16:39;;;;;;;;;;;;;;;19.59;46.85;100773.06;5113551;28;20257;-38
2022/11/20 03:19:05;;;;;;;;;;;;;;;19.59;47.09;100776.66;5116727;28;19924;-39
2022/11/20 03:21:32;;;;;;;;;;;;;;;19.59;46.67;100782.19;5116846;28;19924;-38
2022/11/20 03:23:57;;;;;;;;;;;;;;;19.59;46.96;100776.66;5110611;28;19979;-39
2022/11/20 03:26:24;;;;;;;;;;;;;;;19.58;47.09;100775.00;5117068;28;19923;-39
2022/11/20 03:28:50;;;;;;;;;;;;;;;19.58;46.85;100780.53;5102740;28;19962;-39
2022/11/20 03:31:16;;;;;;;;;;;;;;;19.58;46.98;100774.19;5109304;28;20003;-39
2022/11/20 03:33:42;;;;;;;;;;;;;;;19.58;47.02;100774.19;5090162;28;19967;-39
2022/11/20 03:36:08;;;;;;;;;;;;;;;19.59;46.96;100778.59;5122441;28;19931;-39
2022/11/20 03:38:34;;;;;;;;;;;;;;;19.59;46.83;100770.31;5096437;28;19959;-38
2022/11/20 03:41:00;;;;;;;;;;;;;;;19.58;46.92;100772.25;5093677;28;20409;-39
2022/11/20 03:43:26;;;;;;;;;;;;;;;19.58;46.99;100766.72;5110703;27;19967;-38
2022/11/20 03:45:51;;;;;;;;;;;;;;;19.58;47.11;100765.91;5115581;28;19947;-37
2022/11/20 03:48:17;;;;;;;;;;;;;;;19.58;46.68;100775.00;5114547;28;19924;-39
2022/11/20 03:50:42;;;;;;;;;;;;;;;19.59;47.03;100779.41;5115477;28;19946;-37
2022/11/20 03:53:08;;;;;;;;;;;;;;;19.59;46.88;100775.81;5109844;28;19924;-39
2022/11/20 03:55:33;;;;;;;;;;;;;;;19.57;46.99;100772.53;5115815;28;19938;-39
2022/11/20 03:57:59;;;;;;;;;;;;;;;19.57;46.92;100769.78;5113708;28;20444;-40
2022/11/20 04:00:25;;;;;;;;;;;;;;;19.58;47.06;100775.00;5119219;28;19927;-40
2022/11/20 04:02:50;;;;;;;;;;;;;;;19.58;46.95;100775.00;5115199;27;19924;-38
2022/11/20 04:05:16;;;;;;;;;;;;;;;19.57;46.87;100767.03;5117527;28;20283;-39
2022/11/20 04:07:41;;;;;;;;;;;;;;;19.58;47.03;100771.44;5122516;28;19923;-39
2022/11/20 04:10:07;;;;;;;;;;;;;;;19.57;46.90;100767.03;5109895;28;19924;-38
2022/11/20 04:12:33;;;;;;;;;;;;;;;19.57;46.94;100762.31;5109616;28;20006;-38
2022/11/20 04:14:59;;;;;;;;;;;;;;;19.58;47.01;100765.91;5114614;28;20014;-39
2022/11/20 04:17:24;;;;;;;;;;;;;;;19.58;46.94;100768.66;5124364;28;19927;-38
2022/11/20 04:19:50;;;;;;;;;;;;;;;19.58;47.11;100771.44;5099116;28;20110;-38
2022/11/20 04:22:15;;;;;;;;;;;;;;;19.57;46.97;100769.78;5111448;28;19924;-38
2022/11/20 04:24:41;;;;;;;;;;;;;;;19.56;46.65;100766.19;5118403;28;19984;-40
2022/11/20 04:27:06;;;;;;;;;;;;;;;19.57;46.69;100767.03;5115226;28;19924;-39
2022/11/20 04:29:32;;;;;;;;;;;;;;;19.57;46.90;100765.09;5112742;28;20352;-37
2022/11/20 04:31:57;;;;;;;;;;;;;;;19.57;46.92;100758.72;5106318;28;19927;-39
2022/11/20 04:34:23;;;;;;;;;;;;;;;19.55;47.03;100762.59;5113150;28;20021;-39
2022/11/20 04:36:48;;;;;;;;;;;;;;;19.57;46.62;100761.50;5113799;28;20413;-39
2022/11/20 04:39:15;;;;;;;;;;;;;;;19.57;46.58;100758.72;5117117;28;20020;-39
2022/11/20 04:41:40;;;;;;;;;;;;;;;19.56;46.79;100760.69;5095542;28;20529;-39
2022/11/20 04:44:06;;;;;;;;;;;;;;;19.57;47.03;100764.25;5116178;28;19946;-39
2022/11/20 04:46:33;;;;;;;;;;;;;;;19.58;46.83;100757.63;5114701;28;19924;-39
2022/11/20 04:48:59;;;;;;;;;;;;;;;19.57;46.92;100767.84;5117160;28;20177;-39
2022/11/20 04:51:24;;;;;;;;;;;;;;;19.57;46.88;100767.03;5099695;28;19970;-38
2022/11/20 04:53:50;;;;;;;;;;;;;;;19.56;47.03;100760.69;5110633;28;19991;-37
2022/11/20 04:56:15;;;;;;;;;;;;;;;19.55;46.77;100764.53;5122314;27;19931;-39
2022/11/20 04:58:41;;;;;;;;;;;;;;;19.56;46.88;100760.69;5123461;27;19930;-39
2022/11/20 05:01:08;;;;;;;;;;;;;;;19.55;46.82;100765.34;5099213;28;19924;-38
2022/11/20 05:03:34;;;;;;;;;;;;;;;19.57;46.79;100755.97;5094367;28;19924;-38
2022/11/20 05:06:06;;;;;;;;;;;;;;;19.55;46.86;100757.06;5099164;28;19931;-38
2022/11/20 05:08:32;;;;;;;;;;;;;;;19.56;46.63;100763.44;5110439;28;19976;-39
2022/11/20 05:11:01;;;;;;;;;;;;;;;19.55;46.66;100765.34;5122859;28;19983;-39
2022/11/20 05:13:27;;;;;;;;;;;;;;;19.55;46.61;100759.81;5114400;28;20438;-38
2022/11/20 05:15:52;;;;;;;;;;;;;;;19.56;46.80;100760.69;5090660;28;19931;-39
2022/11/20 05:18:18;;;;;;;;;;;;;;;19.56;46.65;100760.69;5124645;28;19923;-39
2022/11/20 05:20:43;;;;;;;;;;;;;;;19.56;46.75;100763.44;5123195;28;20391;-39
2022/11/20 05:23:09;;;;;;;;;;;;;;;19.55;46.93;100757.06;5111706;28;19977;-38
2022/11/20 05:25:34;;;;;;;;;;;;;;;19.55;46.69;100762.59;5116349;28;19931;-38
2022/11/20 05:28:00;;;;;;;;;;;;;;;19.56;46.86;100755.16;5122767;28;20307;-39
2022/11/20 05:30:26;;;;;;;;;;;;;;;19.55;46.53;100756.25;5119003;28;19932;-39
2022/11/20 05:32:51;;;;;;;;;;;;;;;19.55;46.78;100753.47;5113088;28;20055;-39
2022/11/20 05:35:17;;;;;;;;;;;;;;;19.55;46.82;100762.59;5117808;28;20251;-38
2022/11/20 05:37:42;;;;;;;;;;;;;;;19.55;46.79;100750.72;5112800;28;19923;-38
2022/11/20 05:40:08;;;;;;;;;;;;;;;19.55;46.69;100750.72;5121545;28;19931;-39
2022/11/20 05:42:34;;;;;;;;;;;;;;;19.55;46.79;100747.94;5116712;28;19931;-39
2022/11/20 05:45:00;;;;;;;;;;;;;;;19.55;46.66;100759.81;5108748;28;19953;-39
2022/11/20 05:47:26;;;;;;;;;;;;;;;19.56;46.83;100757.91;5109428;28;19928;-39
2022/11/20 05:49:51;;;;;;;;;;;;;;;19.55;46.83;100754.28;5115563;28;20271;-39
2022/11/20 05:52:17;;;;;;;;;;;;;;;19.54;46.77;100752.66;5109859;28;19924;-39
2022/11/20 05:54:42;;;;;;;;;;;;;;;19.55;46.57;100754.28;5110157;28;19924;-39
2022/11/20 05:57:08;;;;;;;;;;;;;;;19.54;46.77;100747.13;5116571;28;19923;-39
2022/11/20 05:59:33;;;;;;;;;;;;;;;19.55;46.78;100754.28;5117519;28;19924;-39
2022/11/20 06:01:59;;;;;;;;;;;;;;;19.54;46.81;100757.34;5099194;27;19923;-39
2022/11/20 06:04:25;;;;;;;;;;;;;;;19.54;46.67;100747.13;5114410;28;19939;-38
2022/11/20 06:06:50;;;;;;;;;;;;;;;19.54;46.59;100752.66;5111715;28;19924;-39
2022/11/20 06:09:16;;;;;;;;;;;;;;;19.54;46.93;100749.91;5112423;28;19988;-39
2022/11/20 06:11:41;;;;;;;;;;;;;;;19.55;46.48;100745.19;5110101;28;19931;-38
2022/11/20 06:14:07;;;;;;;;;;;;;;;19.54;46.81;100744.38;5115112;28;20295;-39
2022/11/20 06:16:32;;;;;;;;;;;;;;;19.54;46.72;100747.13;5117009;28;19924;-38
2022/11/20 06:18:58;;;;;;;;;;;;;;;19.54;46.85;100738.03;5116857;27;19931;-39
2022/11/20 06:21:23;;;;;;;;;;;;;;;19.54;46.56;100740.78;5120058;28;19923;-39
2022/11/20 06:23:49;;;;;;;;;;;;;;;19.54;46.66;100743.53;5097393;28;19930;-37
2022/11/20 06:26:16;;;;;;;;;;;;;;;19.54;46.84;100752.66;5115900;28;20533;-39
2022/11/20 06:28:41;;;;;;;;;;;;;;;19.55;46.80;100747.94;5116751;28;19971;-39
2022/11/20 06:31:07;;;;;;;;;;;;;;;19.55;46.55;100745.19;5095292;28;19924;-38
2022/11/20 06:33:33;;;;;;;;;;;;;;;19.55;46.78;100742.44;5093928;28;19923;-39
2022/11/20 06:35:58;;;;;;;;;;;;;;;19.53;46.80;100753.78;5112886;28;19967;-39
2022/11/20 06:38:28;;;;;;;;;;;;;;;19.54;46.77;100751.84;5110095;28;19924;-39
2022/11/20 06:40:54;;;;;;;;;;;;;;;19.54;46.76;100760.13;5118657;28;19931;-39
2022/11/20 06:43:20;;;;;;;;;;;;;;;19.53;46.75;100759.31;5093292;28;19931;-39
2022/11/20 06:45:45;;;;;;;;;;;;;;;19.53;46.46;100759.31;5119854;28;20167;-38
2022/11/20 06:48:11;;;;;;;;;;;;;;;19.53;46.72;100759.31;5122299;28;19924;-39
2022/11/20 06:50:36;;;;;;;;;;;;;;;19.53;46.78;100761.25;5120085;28;20371;-37
2022/11/20 06:53:03;;;;;;;;;;;;;;;19.54;46.72;100762.88;5116543;28;19935;-39
2022/11/20 06:55:29;;;;;;;;;;;;;;;19.53;46.41;100769.53;5097194;28;20006;-39
2022/11/20 06:57:54;;;;;;;;;;;;;;;19.54;46.64;100768.41;5116329;28;19985;-40
2022/11/20 07:00:21;;;;;;;;;;;;;;;19.54;46.59;100776.69;5116680;28;19976;-39
2022/11/20 07:02:46;;;;;;;;;;;;;;;19.53;46.45;100770.34;5110768;28;20235;-39
2022/11/20 07:05:12;;;;;;;;;;;;;;;19.53;46.38;100778.63;5115338;28;19923;-39
2022/11/20 07:07:38;;;;;;;;;;;;;;;19.53;46.64;100778.63;5114873;28;20094;-37
2022/11/20 07:10:04;;;;;;;;;;;;;;;19.53;46.76;100784.16;5115753;28;19924;-38
2022/11/20 07:12:29;;;;;;;;;;;;;;;19.53;46.41;100777.81;5119023;27;19924;-39
2022/11/20 07:14:55;;;;;;;;;;;;;;;19.53;46.76;100773.09;5117878;28;19931;-37
2022/11/20 07:17:20;;;;;;;;;;;;;;;19.53;46.81;100772.28;5110237;28;19928;-38
2022/11/20 07:19:46;;;;;;;;;;;;;;;19.53;46.37;100780.56;5119174;28;20403;-39
2022/11/20 07:22:12;;;;;;;;;;;;;;;19.53;46.76;100786.91;5121611;28;19924;-39
2022/11/20 07:24:38;;;;;;;;;;;;;;;19.53;46.81;100786.91;5115107;28;19927;-38
2022/11/20 07:27:10;;;;;;;;;;;;;;;19.53;46.41;100786.09;5118526;28;19927;-38
2022/11/20 07:29:36;;;;;;;;;;;;;;;19.53;46.64;100786.09;5117787;28;19931;-39
2022/11/20 07:32:03;;;;;;;;;;;;;;;19.53;46.45;100786.09;5112298;28;19928;-39
2022/11/20 07:34:29;;;;;;;;;;;;;;;19.52;46.68;100781.69;5112446;28;19974;-40
2022/11/20 07:36:54;;;;;;;;;;;;;;;19.52;46.65;100785.28;5121039;28;20105;-39
2022/11/20 07:39:20;;;;;;;;;;;;;;;19.52;46.78;100771.47;5124581;28;19996;-39
2022/11/20 07:41:46;;;;;;;;;;;;;;;19.53;46.36;100772.28;5116815;28;20432;-37
2022/11/20 07:44:12;;;;;;;;;;;;;;;19.53;46.71;100769.53;5110185;28;19931;-37
2022/11/20 07:46:37;;;;;;;;;;;;;;;19.53;46.64;100772.28;5115907;28;19923;-39
2022/11/20 07:49:03;;;;;;;;;;;;;;;19.53;46.52;100770.34;5112460;28;20418;-39
2022/11/20 07:51:29;;;;;;;;;;;;;;;19.53;46.46;100767.59;5120331;28;19923;-39
2022/11/20 07:53:54;;;;;;;;;;;;;;;19.52;46.76;100765.94;5115718;28;20386;-38
2022/11/20 07:56:20;;;;;;;;;;;;;;;19.52;46.74;100767.88;5114696;28;19928;-39
2022/11/20 07:58:45;;;;;;;;;;;;;;;19.51;46.72;100758.75;5116157;28;19923;-40
2022/11/20 08:01:11;;;;;;;;;;;;;;;19.52;46.54;100757.66;5113516;28;19984;-39
2022/11/20 08:03:38;;;;;;;;;;;;;;;19.52;46.55;100760.41;5109600;28;19931;-40
2022/11/20 08:06:03;;;;;;;;;;;;;;;19.52;46.67;100752.13;5115588;27;19965;-38
2022/11/20 08:08:29;;;;;;;;;;;;;;;19.52;46.73;100763.19;5099893;27;19976;-39
2022/11/20 08:14:11;;;;;;;;;;;;;;;19.52;46.69;100765.13;5115700;28;19955;-39
2022/11/20 08:14:15;;;;;;;;;;;;;;;19.52;46.40;100759.59;5098913;28;20080;-39
2022/11/20 08:16:29;;;;;;;;;;;;;;;19.52;46.46;100754.91;5099604;28;19993;-40
2022/11/20 08:18:56;;;;;;;;;;;;;;;19.52;46.43;100763.19;5114122;28;21376;-39
2022/11/20 08:21:21;;;;;;;;;;;;;;;19.52;46.37;100756.84;5110674;28;20121;-39
2022/11/20 08:23:47;;;;;;;;;;;;;;;19.51;46.54;100761.50;5115526;28;19930;-39
2022/11/20 08:26:12;;;;;;;;;;;;;;;19.51;46.73;100766.22;5115158;28;19969;-39
2022/11/20 08:28:38;;;;;;;;;;;;;;;19.52;46.26;100765.13;5111360;28;20356;-39
2022/11/20 08:31:03;;;;;;;;;;;;;;;19.51;46.50;100768.97;5115024;27;19931;-39
2022/11/20 08:33:32;;;;;;;;;;;;;;;19.51;46.61;100767.03;5111780;28;19970;-39
2022/11/20 08:35:58;;;;;;;;;;;;;;;19.52;46.36;100762.34;5103357;28;20422;-39
2022/11/20 08:38:24;;;;;;;;;;;;;;;19.52;46.62;100760.41;5104167;28;19923;-39
2022/11/20 08:41:23;;;;;;;;;;;;;;;19.51;46.46;100760.69;5119794;28;20311;-39
2022/11/20 08:43:35;;;;;;;;;;;;;;;19.51;46.49;100761.50;5098701;28;19967;-38
2022/11/20 08:46:00;;;;;;;;;;;;;;;19.51;46.37;100763.44;5113781;28;19932;-39
2022/11/20 08:48:26;;;;;;;;;;;;;;;19.51;46.48;100766.22;5124413;28;19924;-38
2022/11/20 08:50:51;;;;;;;;;;;;;;;19.51;46.58;100766.22;5113542;28;19923;-38
2022/11/20 08:53:17;;;;;;;;;;;;;;;19.51;46.61;100766.22;5112529;28;19924;-37
2022/11/20 08:55:43;;;;;;;;;;;;;;;19.51;46.33;100768.97;5119089;28;19924;-38
2022/11/20 08:58:08;;;;;;;;;;;;;;;19.51;46.52;100768.97;5114493;28;19954;-40
2022/11/20 09:00:34;;;;;;;;;;;;;;;19.52;46.40;100778.94;5120559;28;20014;-39
2022/11/20 09:03:00;;;;;;;;;;;;;;;19.51;46.52;100774.50;5123171;27;19932;-38
2022/11/20 09:05:26;;;;;;;;;;;;;;;19.49;46.48;100766.50;5120138;28;19967;-39
2022/11/20 09:07:52;;;;;;;;;;;;;;;19.51;46.22;100763.44;5110516;28;19943;-39
2022/11/20 09:10:17;;;;;;;;;;;;;;;19.51;46.65;100772.56;5093717;28;19928;-39
2022/11/20 09:12:51;;;;;;;;;;;;;;;19.50;46.50;100759.88;5115958;28;19934;-37
2022/11/20 09:15:17;;;;;;;;;;;;;;;19.51;46.57;100757.91;5118021;28;19966;-36
2022/11/20 09:17:49;;;;;;;;;;;;;;;19.51;46.61;100752.41;5098756;28;19924;-38
2022/11/20 09:20:16;;;;;;;;;;;;;;;19.51;46.35;100749.63;5118926;28;19955;-39
2022/11/20 09:22:41;;;;;;;;;;;;;;;19.51;46.44;100749.63;5115860;28;20381;-39
2022/11/20 09:25:07;;;;;;;;;;;;;;;19.50;46.55;100745.22;5118870;28;19924;-39
2022/11/20 09:27:32;;;;;;;;;;;;;;;19.50;46.24;100736.94;5116637;28;20304;-37
2022/11/20 09:29:58;;;;;;;;;;;;;;;19.50;46.67;100737.75;5114016;28;19927;-39
2022/11/20 09:32:23;;;;;;;;;;;;;;;19.51;46.53;100738.59;5116476;28;19924;-38
2022/11/20 09:34:49;;;;;;;;;;;;;;;19.50;46.47;100734.19;5122351;28;19923;-38
2022/11/20 09:37:15;;;;;;;;;;;;;;;19.51;46.55;100735.81;5109609;28;20232;-36
2022/11/20 09:39:40;;;;;;;;;;;;;;;19.51;46.36;100727.53;5116376;28;20361;-39
2022/11/20 09:42:17;;;;;;;;;;;;;;;19.50;46.61;100732.25;5114624;28;19932;-38
2022/11/20 09:44:53;;;;;;;;;;;;;;;19.50;46.29;100729.47;5112427;28;19997;-39
2022/11/20 09:47:39;;;;;;;;;;;;;;;19.50;46.49;100732.25;5111799;28;19967;-37
2022/11/20 09:50:24;;;;;;;;;;;;;;;19.50;46.54;100736.94;5104034;28;20023;-38
2022/11/20 09:53:10;;;;;;;;;;;;;;;19.50;46.52;100746.06;5101104;28;20019;-38
2022/11/20 09:55:35;;;;;;;;;;;;;;;19.50;46.53;100740.53;5107189;28;19973;-38
2022/11/20 09:58:01;;;;;;;;;;;;;;;19.50;46.59;100739.72;5112916;28;20295;-39
2022/11/20 10:00:27;;;;;;;;;;;;;;;19.50;46.57;100740.53;5118498;28;19923;-38
2022/11/20 10:02:55;;;;;;;;;;;;;;;19.50;46.55;100739.72;5112709;28;19930;-38
2022/11/20 10:05:22;;;;;;;;;;;;;;;19.49;46.27;100736.13;5099804;28;20029;-39
2022/11/20 10:07:55;;;;;;;;;;;;;;;19.50;46.31;100742.47;5115047;28;20011;-39
2022/11/20 10:10:24;;;;;;;;;;;;;;;19.49;46.42;100735.31;5118245;28;20268;-39
2022/11/20 10:13:10;;;;;;;;;;;;;;;19.49;46.27;100733.38;5112335;28;20425;-38
2022/11/20 10:15:43;;;;;;;;;;;;;;;19.49;46.41;100736.13;5110260;28;19959;-39
2022/11/20 10:18:28;;;;;;;;;;;;;;;19.50;46.49;100734.19;5111686;28;20014;-38
2022/11/20 10:20:57;;;;;;;;;;;;;;;19.49;46.57;100722.31;5108422;28;20403;-37
2022/11/20 10:23:42;;;;;;;;;;;;;;;19.50;46.30;100712.09;5114318;28;20016;-39
2022/11/20 10:28:55;;;;;;;;;;;;;;;19.49;46.56;100702.97;5182417;27;19925;-39
2022/11/20 10:31:31;;;;;;;;;;;;;;;19.50;46.62;100699.09;5163778;27;19937;-39
2022/11/20 10:33:56;;;;;;;;;;;;;;;19.49;46.17;100691.13;5159595;27;19974;-37
2022/11/20 10:36:46;;;;;;;;;;;;;;;19.49;46.36;100686.41;5161184;27;19923;-37
2022/11/20 10:39:24;;;;;;;;;;;;;;;19.49;46.22;100677.31;5163568;27;19977;-38
2022/11/20 10:41:50;;;;;;;;;;;;;;;19.49;46.36;100675.38;5146725;27;19923;-37
2022/11/20 10:45:00;;;;;;;;;;;;;;;19.49;46.30;100671.78;5151349;27;19931;-39
2022/11/20 10:47:05;;;;;;;;;;;;;;;19.49;46.60;100671.78;5122443;27;20220;-38
2022/11/20 10:49:30;;;;;;;;;;;;;;;19.49;46.48;100666.25;5162054;27;19961;-38
2022/11/20 10:52:03;;;;;;;;;;;;;;;19.49;46.34;100669.03;5160956;27;19923;-38
2022/11/20 10:54:38;;;;;;;;;;;;;;;19.50;46.50;100667.91;5158918;27;19962;-38
2022/11/20 10:57:07;;;;;;;;;;;;;;;19.49;46.36;100655.22;5159091;27;19962;-37
2022/11/20 10:59:36;;;;;;;;;;;;;;;19.48;46.50;100657.16;5161277;27;20010;-36
2022/11/20 11:02:13;;;;;;;;;;;;;;;19.49;46.37;100644.16;5162860;27;19948;-38
2022/11/20 11:04:40;;;;;;;;;;;;;;;19.49;46.24;100644.16;5164997;27;19963;-38
2022/11/20 11:07:11;;;;;;;;;;;;;;;19.48;46.48;100648.88;5144097;27;20294;-37
2022/11/20 11:09:41;;;;;;;;;;;;;;;19.49;46.38;100642.22;5164894;27;19930;-39
2022/11/20 11:12:08;;;;;;;;;;;;;;;19.48;46.45;100632.28;5148886;27;19974;-38
2022/11/20 11:14:49;;;;;;;;;;;;;;;19.48;46.46;100629.53;5165113;27;20027;-37
2022/11/20 11:17:31;;;;;;;;;;;;;;;19.48;46.52;100626.78;5149590;27;20029;-38
2022/11/20 11:19:58;;;;;;;;;;;;;;;19.48;46.24;100632.28;5153783;27;21464;-39
2022/11/20 11:22:23;;;;;;;;;;;;;;;19.48;46.22;100621.25;5165354;27;19992;-39
2022/11/20 11:24:51;;;;;;;;;;;;;;;19.49;46.51;100622.06;5164710;27;19999;-37
2022/11/20 11:27:17;;;;;;;;;;;;;;;19.49;46.59;100616.53;5147737;27;19958;-38
2022/11/20 11:29:43;;;;;;;;;;;;;;;19.48;46.34;100609.38;5163508;27;19927;-38
2022/11/20 11:32:26;;;;;;;;;;;;;;;19.48;46.24;100607.44;5160425;27;19968;-38
2022/11/20 11:35:00;;;;;;;;;;;;;;;19.47;46.35;100603.03;5162767;27;19986;-39
2022/11/20 11:37:26;;;;;;;;;;;;;;;19.48;46.39;100592.81;5147107;27;20409;-37
2022/11/20 11:39:51;;;;;;;;;;;;;;;19.48;46.48;100592.81;5153014;27;19923;-37
2022/11/20 11:42:41;;;;;;;;;;;;;;;19.49;46.38;100591.69;5139341;27;19931;-39
2022/11/20 11:45:07;;;;;;;;;;;;;;;19.47;46.61;100589.22;5149743;27;19962;-38
2022/11/20 11:47:35;;;;;;;;;;;;;;;19.48;46.58;100573.47;5150708;27;19923;-38
2022/11/20 11:52:46;;;;;;;;;;;;;;;19.48;46.59;100562.44;5179264;27;19926;-37
2022/11/20 11:55:14;;;;;;;;;;;;;;;19.48;46.47;100559.66;5159144;27;20331;-36
2022/11/20 11:57:42;;;;;;;;;;;;;;;19.48;46.48;100549.44;5151427;27;20013;-37
2022/11/20 12:00:10;;;;;;;;;;;;;;;19.48;46.58;100552.19;5151217;27;19962;-36
2022/11/20 12:02:38;;;;;;;;;;;;;;;19.48;46.38;100549.44;5161484;27;20030;-39
2022/11/20 12:05:23;;;;;;;;;;;;;;;19.47;46.23;100547.81;5144180;27;20153;-39
2022/11/20 12:07:53;;;;;;;;;;;;;;;19.48;46.40;100540.34;5130093;27;20018;-38
2022/11/20 12:10:21;;;;;;;;;;;;;;;19.47;46.51;100538.66;5149341;27;20351;-38
2022/11/20 12:12:48;;;;;;;;;;;;;;;19.48;46.48;100532.06;5142145;27;20459;-37
2022/11/20 12:15:16;;;;;;;;;;;;;;;19.48;46.50;100538.38;5145485;27;20002;-38
2022/11/20 12:17:41;;;;;;;;;;;;;;;19.48;46.63;100537.56;5146365;27;20008;-38
2022/11/20 12:20:12;;;;;;;;;;;;;;;19.47;46.58;100531.22;5147114;27;19927;-38
2022/11/20 12:22:41;;;;;;;;;;;;;;;19.48;46.47;100526.53;5129490;27;20475;-37
2022/11/20 12:25:07;;;;;;;;;;;;;;;19.47;46.58;100524.84;5148428;27;20371;-38
2022/11/20 12:27:42;;;;;;;;;;;;;;;19.47;46.59;100522.94;5131415;27;19997;-39
2022/11/20 12:30:09;;;;;;;;;;;;;;;19.47;46.58;100517.41;5149897;27;19934;-38
2022/11/20 12:32:55;;;;;;;;;;;;;;;19.46;46.25;100518.50;5124162;27;19951;-38
2022/11/20 12:38:07;;;;;;;;;;;;;;;19.48;46.49;100513.53;5170408;27;20274;-39
2022/11/20 12:40:53;;;;;;;;;;;;;;;19.46;46.39;100513.00;5158956;27;19974;-38
2022/11/20 12:46:10;;;;;;;;;;;;;;;19.47;46.27;100503.63;5139228;27;19958;-38
2022/11/20 12:48:39;;;;;;;;;;;;;;;19.48;46.57;100493.38;5154182;27;19951;-38
2022/11/20 12:51:18;;;;;;;;;;;;;;;19.48;46.50;100494.22;5159720;27;19923;-37